sensor_id;sensor_type;location;lat;lon;timestamp;P1;durP1;ratioP1;P2;durP2;ratioP2
14858;SDS011;7521;51.700;6.874;2022-10-17T00:01:33;7.80;;;6.28;;
14858;SDS011;7521;51.700;6.874;2022-10-17T00:04:38;8.63;;;5.63;;
14858;SDS011;7521;51.700;6.874;2022-10-17T00:07:43;8.03;;;6.30;;
14858;SDS011;7521;51.700;6.874;2022-10-17T00:10:55;12.87;;;7.13;;
14858;SDS011;7521;51.700;6.874;2022-10-17T00:14:01;7.93;;;6.20;;
14858;SDS011;7521;51.700;6.874;2022-10-17T00:17:07;9.83;;;5.97;;
14858;SDS011;7521;51.700;6.874;2022-10-17T00:20:12;8.40;;;6.00;;
14858;SDS011;7521;51.700;6.874;2022-10-17T00:23:17;8.53;;;6.23;;
14858;SDS011;7521;51.700;6.874;2022-10-17T00:26:22;8.03;;;6.60;;
14858;SDS011;7521;51.700;6.874;2022-10-17T00:29:28;9.53;;;6.57;;
14858;SDS011;7521;51.700;6.874;2022-10-17T00:32:33;7.87;;;6.57;;
14858;SDS011;7521;51.700;6.874;2022-10-17T00:35:38;9.55;;;6.50;;
14858;SDS011;7521;51.700;6.874;2022-10-17T00:38:44;10.45;;;6.38;;
14858;SDS011;7521;51.700;6.874;2022-10-17T00:41:49;8.43;;;6.70;;
14858;SDS011;7521;51.700;6.874;2022-10-17T00:45:03;9.97;;;6.70;;
14858;SDS011;7521;51.700;6.874;2022-10-17T00:48:09;8.00;;;6.33;;
14858;SDS011;7521;51.700;6.874;2022-10-17T00:51:15;7.50;;;6.80;;
14858;SDS011;7521;51.700;6.874;2022-10-17T00:54:23;7.20;;;6.10;;
14858;SDS011;7521;51.700;6.874;2022-10-17T00:57:29;7.90;;;6.20;;
14858;SDS011;7521;51.700;6.874;2022-10-17T01:00:35;8.07;;;6.10;;
14858;SDS011;7521;51.700;6.874;2022-10-17T01:03:41;7.67;;;6.87;;
14858;SDS011;7521;51.700;6.874;2022-10-17T01:06:46;9.32;;;7.15;;
14858;SDS011;7521;51.700;6.874;2022-10-17T01:09:51;8.25;;;6.70;;
14858;SDS011;7521;51.700;6.874;2022-10-17T01:13:04;8.57;;;7.13;;
14858;SDS011;7521;51.700;6.874;2022-10-17T01:16:17;8.83;;;7.20;;
14858;SDS011;7521;51.700;6.874;2022-10-17T01:19:33;8.33;;;6.97;;
14858;SDS011;7521;51.700;6.874;2022-10-17T01:22:43;7.33;;;6.63;;
14858;SDS011;7521;51.700;6.874;2022-10-17T01:29:15;9.53;;;7.27;;
14858;SDS011;7521;51.700;6.874;2022-10-17T01:32:28;9.93;;;7.93;;
14858;SDS011;7521;51.700;6.874;2022-10-17T01:38:56;9.73;;;7.27;;
14858;SDS011;7521;51.700;6.874;2022-10-17T01:42:09;8.03;;;7.20;;
14858;SDS011;7521;51.700;6.874;2022-10-17T01:45:16;7.43;;;6.70;;
14858;SDS011;7521;51.700;6.874;2022-10-17T01:48:27;7.43;;;6.53;;
14858;SDS011;7521;51.700;6.874;2022-10-17T01:51:36;8.77;;;7.77;;
14858;SDS011;7521;51.700;6.874;2022-10-17T01:54:47;8.03;;;6.63;;
14858;SDS011;7521;51.700;6.874;2022-10-17T01:57:54;8.10;;;7.30;;
14858;SDS011;7521;51.700;6.874;2022-10-17T02:01:00;8.53;;;7.60;;
14858;SDS011;7521;51.700;6.874;2022-10-17T02:04:06;9.57;;;7.47;;
14858;SDS011;7521;51.700;6.874;2022-10-17T02:07:12;8.00;;;7.20;;
14858;SDS011;7521;51.700;6.874;2022-10-17T02:10:20;8.98;;;7.43;;
14858;SDS011;7521;51.700;6.874;2022-10-17T02:16:46;7.87;;;7.07;;
14858;SDS011;7521;51.700;6.874;2022-10-17T02:23:23;10.53;;;7.47;;
14858;SDS011;7521;51.700;6.874;2022-10-17T02:26:33;8.40;;;7.60;;
14858;SDS011;7521;51.700;6.874;2022-10-17T02:29:47;9.80;;;7.90;;
14858;SDS011;7521;51.700;6.874;2022-10-17T02:32:57;8.60;;;7.73;;
14858;SDS011;7521;51.700;6.874;2022-10-17T02:36:06;7.70;;;7.00;;
14858;SDS011;7521;51.700;6.874;2022-10-17T02:39:12;8.03;;;7.27;;
14858;SDS011;7521;51.700;6.874;2022-10-17T02:42:19;8.17;;;7.47;;
14858;SDS011;7521;51.700;6.874;2022-10-17T02:45:25;9.03;;;7.83;;
14858;SDS011;7521;51.700;6.874;2022-10-17T02:51:41;9.32;;;7.40;;
14858;SDS011;7521;51.700;6.874;2022-10-17T02:54:50;8.27;;;7.10;;
14858;SDS011;7521;51.700;6.874;2022-10-17T02:57:58;8.03;;;7.27;;
14858;SDS011;7521;51.700;6.874;2022-10-17T03:01:04;7.67;;;6.97;;
14858;SDS011;7521;51.700;6.874;2022-10-17T03:04:11;6.80;;;6.00;;
14858;SDS011;7521;51.700;6.874;2022-10-17T03:07:17;7.60;;;6.80;;
14858;SDS011;7521;51.700;6.874;2022-10-17T03:10:22;7.60;;;6.40;;
14858;SDS011;7521;51.700;6.874;2022-10-17T03:13:28;7.40;;;6.70;;
14858;SDS011;7521;51.700;6.874;2022-10-17T03:16:33;7.67;;;6.93;;
14858;SDS011;7521;51.700;6.874;2022-10-17T03:19:38;7.53;;;6.20;;
14858;SDS011;7521;51.700;6.874;2022-10-17T03:22:43;8.68;;;6.80;;
14858;SDS011;7521;51.700;6.874;2022-10-17T03:25:48;7.60;;;6.88;;
14858;SDS011;7521;51.700;6.874;2022-10-17T03:28:54;8.20;;;7.10;;
14858;SDS011;7521;51.700;6.874;2022-10-17T03:31:59;9.43;;;7.60;;
14858;SDS011;7521;51.700;6.874;2022-10-17T03:35:04;7.68;;;6.97;;
14858;SDS011;7521;51.700;6.874;2022-10-17T03:38:09;7.10;;;6.40;;
14858;SDS011;7521;51.700;6.874;2022-10-17T03:41:14;7.82;;;6.88;;
14858;SDS011;7521;51.700;6.874;2022-10-17T03:44:19;7.53;;;6.82;;
14858;SDS011;7521;51.700;6.874;2022-10-17T03:47:25;7.60;;;6.60;;
14858;SDS011;7521;51.700;6.874;2022-10-17T03:50:30;8.93;;;6.73;;
14858;SDS011;7521;51.700;6.874;2022-10-17T03:53:35;9.98;;;7.60;;
14858;SDS011;7521;51.700;6.874;2022-10-17T03:56:40;9.37;;;7.87;;
14858;SDS011;7521;51.700;6.874;2022-10-17T03:59:46;8.80;;;7.57;;
14858;SDS011;7521;51.700;6.874;2022-10-17T04:02:51;8.13;;;7.33;;
14858;SDS011;7521;51.700;6.874;2022-10-17T04:06:00;9.15;;;8.25;;
14858;SDS011;7521;51.700;6.874;2022-10-17T04:09:05;7.80;;;6.87;;
14858;SDS011;7521;51.700;6.874;2022-10-17T04:12:10;10.90;;;7.83;;
14858;SDS011;7521;51.700;6.874;2022-10-17T04:15:16;8.43;;;7.50;;
14858;SDS011;7521;51.700;6.874;2022-10-17T04:18:21;5.97;;;5.30;;
14858;SDS011;7521;51.700;6.874;2022-10-17T04:21:27;6.60;;;5.37;;
14858;SDS011;7521;51.700;6.874;2022-10-17T04:24:32;5.37;;;4.87;;
14858;SDS011;7521;51.700;6.874;2022-10-17T04:27:37;6.88;;;6.03;;
14858;SDS011;7521;51.700;6.874;2022-10-17T04:30:42;6.83;;;6.17;;
14858;SDS011;7521;51.700;6.874;2022-10-17T04:33:48;7.18;;;6.13;;
14858;SDS011;7521;51.700;6.874;2022-10-17T04:36:54;9.10;;;6.87;;
14858;SDS011;7521;51.700;6.874;2022-10-17T04:39:59;9.88;;;7.50;;
14858;SDS011;7521;51.700;6.874;2022-10-17T04:43:04;9.15;;;7.03;;
14858;SDS011;7521;51.700;6.874;2022-10-17T04:46:10;8.18;;;7.38;;
14858;SDS011;7521;51.700;6.874;2022-10-17T04:49:16;9.40;;;7.57;;
14858;SDS011;7521;51.700;6.874;2022-10-17T04:52:21;10.15;;;7.10;;
14858;SDS011;7521;51.700;6.874;2022-10-17T04:55:26;8.73;;;7.83;;
14858;SDS011;7521;51.700;6.874;2022-10-17T04:58:31;9.30;;;6.63;;
14858;SDS011;7521;51.700;6.874;2022-10-17T05:01:36;11.77;;;8.10;;
14858;SDS011;7521;51.700;6.874;2022-10-17T05:04:41;10.57;;;7.37;;
14858;SDS011;7521;51.700;6.874;2022-10-17T05:07:47;7.07;;;6.37;;
14858;SDS011;7521;51.700;6.874;2022-10-17T05:10:52;9.48;;;7.18;;
14858;SDS011;7521;51.700;6.874;2022-10-17T05:13:58;10.25;;;7.68;;
14858;SDS011;7521;51.700;6.874;2022-10-17T05:17:03;9.13;;;7.60;;
14858;SDS011;7521;51.700;6.874;2022-10-17T05:20:09;9.73;;;7.30;;
14858;SDS011;7521;51.700;6.874;2022-10-17T05:23:14;7.57;;;6.87;;
14858;SDS011;7521;51.700;6.874;2022-10-17T05:26:20;8.20;;;6.80;;
14858;SDS011;7521;51.700;6.874;2022-10-17T05:29:25;8.47;;;6.60;;
14858;SDS011;7521;51.700;6.874;2022-10-17T05:32:30;7.97;;;7.10;;
14858;SDS011;7521;51.700;6.874;2022-10-17T05:35:35;8.73;;;7.53;;
14858;SDS011;7521;51.700;6.874;2022-10-17T05:38:41;7.70;;;7.00;;
14858;SDS011;7521;51.700;6.874;2022-10-17T05:41:46;10.17;;;7.03;;
14858;SDS011;7521;51.700;6.874;2022-10-17T05:44:51;10.00;;;6.63;;
14858;SDS011;7521;51.700;6.874;2022-10-17T05:47:56;10.15;;;7.03;;
14858;SDS011;7521;51.700;6.874;2022-10-17T05:51:03;12.18;;;6.75;;
14858;SDS011;7521;51.700;6.874;2022-10-17T05:54:08;9.17;;;7.33;;
14858;SDS011;7521;51.700;6.874;2022-10-17T05:57:13;10.43;;;7.10;;
14858;SDS011;7521;51.700;6.874;2022-10-17T06:00:19;9.33;;;7.60;;
14858;SDS011;7521;51.700;6.874;2022-10-17T06:03:24;12.47;;;7.67;;
14858;SDS011;7521;51.700;6.874;2022-10-17T06:06:30;8.45;;;6.70;;
14858;SDS011;7521;51.700;6.874;2022-10-17T06:09:35;9.30;;;7.20;;
14858;SDS011;7521;51.700;6.874;2022-10-17T06:12:41;8.93;;;7.13;;
14858;SDS011;7521;51.700;6.874;2022-10-17T06:15:46;10.63;;;6.90;;
14858;SDS011;7521;51.700;6.874;2022-10-17T06:18:51;10.88;;;6.78;;
14858;SDS011;7521;51.700;6.874;2022-10-17T06:21:56;10.63;;;6.65;;
14858;SDS011;7521;51.700;6.874;2022-10-17T06:25:01;8.68;;;6.55;;
14858;SDS011;7521;51.700;6.874;2022-10-17T06:28:06;7.97;;;6.50;;
14858;SDS011;7521;51.700;6.874;2022-10-17T06:31:12;6.90;;;6.13;;
14858;SDS011;7521;51.700;6.874;2022-10-17T06:34:18;13.43;;;6.60;;
14858;SDS011;7521;51.700;6.874;2022-10-17T06:37:23;11.90;;;6.17;;
14858;SDS011;7521;51.700;6.874;2022-10-17T06:40:28;8.93;;;5.60;;
14858;SDS011;7521;51.700;6.874;2022-10-17T06:43:35;9.60;;;5.70;;
14858;SDS011;7521;51.700;6.874;2022-10-17T06:46:40;6.50;;;5.83;;
14858;SDS011;7521;51.700;6.874;2022-10-17T06:49:45;6.32;;;5.53;;
14858;SDS011;7521;51.700;6.874;2022-10-17T06:52:50;6.93;;;5.43;;
14858;SDS011;7521;51.700;6.874;2022-10-17T06:55:56;9.50;;;5.77;;
14858;SDS011;7521;51.700;6.874;2022-10-17T06:59:07;6.60;;;5.20;;
14858;SDS011;7521;51.700;6.874;2022-10-17T07:02:13;7.30;;;5.87;;
14858;SDS011;7521;51.700;6.874;2022-10-17T07:05:18;7.88;;;6.18;;
14858;SDS011;7521;51.700;6.874;2022-10-17T07:08:23;8.53;;;5.47;;
14858;SDS011;7521;51.700;6.874;2022-10-17T07:11:28;10.47;;;6.07;;
14858;SDS011;7521;51.700;6.874;2022-10-17T07:14:34;6.30;;;5.07;;
14858;SDS011;7521;51.700;6.874;2022-10-17T07:17:39;8.13;;;4.97;;
14858;SDS011;7521;51.700;6.874;2022-10-17T07:20:51;5.30;;;4.80;;
14858;SDS011;7521;51.700;6.874;2022-10-17T07:23:56;7.23;;;5.57;;
14858;SDS011;7521;51.700;6.874;2022-10-17T07:27:01;9.60;;;5.30;;
14858;SDS011;7521;51.700;6.874;2022-10-17T07:30:07;7.53;;;4.90;;
14858;SDS011;7521;51.700;6.874;2022-10-17T07:33:12;15.43;;;5.50;;
14858;SDS011;7521;51.700;6.874;2022-10-17T07:36:17;7.80;;;5.10;;
14858;SDS011;7521;51.700;6.874;2022-10-17T07:39:23;5.80;;;4.43;;
14858;SDS011;7521;51.700;6.874;2022-10-17T07:42:28;7.25;;;4.80;;
14858;SDS011;7521;51.700;6.874;2022-10-17T07:45:33;5.13;;;4.50;;
14858;SDS011;7521;51.700;6.874;2022-10-17T07:48:38;6.80;;;4.40;;
14858;SDS011;7521;51.700;6.874;2022-10-17T07:51:44;5.20;;;4.43;;
14858;SDS011;7521;51.700;6.874;2022-10-17T07:54:49;6.75;;;3.95;;
14858;SDS011;7521;51.700;6.874;2022-10-17T07:57:54;7.27;;;4.67;;
14858;SDS011;7521;51.700;6.874;2022-10-17T08:01:00;6.95;;;4.13;;
14858;SDS011;7521;51.700;6.874;2022-10-17T08:04:05;5.27;;;3.67;;
14858;SDS011;7521;51.700;6.874;2022-10-17T08:07:10;7.13;;;3.57;;
14858;SDS011;7521;51.700;6.874;2022-10-17T08:10:16;6.97;;;4.22;;
14858;SDS011;7521;51.700;6.874;2022-10-17T08:13:21;7.47;;;3.67;;
14858;SDS011;7521;51.700;6.874;2022-10-17T08:16:27;6.30;;;4.13;;
14858;SDS011;7521;51.700;6.874;2022-10-17T08:19:32;6.40;;;4.53;;
14858;SDS011;7521;51.700;6.874;2022-10-17T08:22:37;7.03;;;4.13;;
14858;SDS011;7521;51.700;6.874;2022-10-17T08:25:42;9.05;;;4.60;;
14858;SDS011;7521;51.700;6.874;2022-10-17T08:28:48;7.47;;;3.90;;
14858;SDS011;7521;51.700;6.874;2022-10-17T08:31:53;7.13;;;4.00;;
14858;SDS011;7521;51.700;6.874;2022-10-17T08:34:58;5.03;;;3.83;;
14858;SDS011;7521;51.700;6.874;2022-10-17T08:38:03;9.43;;;3.57;;
14858;SDS011;7521;51.700;6.874;2022-10-17T08:41:13;5.30;;;3.20;;
14858;SDS011;7521;51.700;6.874;2022-10-17T08:47:34;8.57;;;3.10;;
14858;SDS011;7521;51.700;6.874;2022-10-17T08:53:50;4.40;;;3.60;;
14858;SDS011;7521;51.700;6.874;2022-10-17T08:56:55;6.27;;;3.37;;
14858;SDS011;7521;51.700;6.874;2022-10-17T09:00:01;6.10;;;3.27;;
14858;SDS011;7521;51.700;6.874;2022-10-17T09:06:14;6.33;;;3.00;;
14858;SDS011;7521;51.700;6.874;2022-10-17T09:09:31;8.63;;;3.70;;
14858;SDS011;7521;51.700;6.874;2022-10-17T09:12:40;4.90;;;3.30;;
14858;SDS011;7521;51.700;6.874;2022-10-17T09:19:03;4.53;;;3.40;;
14858;SDS011;7521;51.700;6.874;2022-10-17T09:22:19;4.73;;;3.00;;
14858;SDS011;7521;51.700;6.874;2022-10-17T09:25:25;6.97;;;3.07;;
14858;SDS011;7521;51.700;6.874;2022-10-17T09:28:32;6.63;;;3.40;;
14858;SDS011;7521;51.700;6.874;2022-10-17T09:32:00;4.23;;;2.67;;
14858;SDS011;7521;51.700;6.874;2022-10-17T09:35:03;3.80;;;2.90;;
14858;SDS011;7521;51.700;6.874;2022-10-17T09:38:18;6.30;;;3.23;;
14858;SDS011;7521;51.700;6.874;2022-10-17T09:44:54;4.73;;;3.20;;
14858;SDS011;7521;51.700;6.874;2022-10-17T09:48:11;5.20;;;3.43;;
14858;SDS011;7521;51.700;6.874;2022-10-17T09:51:19;10.60;;;3.77;;
14858;SDS011;7521;51.700;6.874;2022-10-17T09:54:35;8.07;;;3.33;;
14858;SDS011;7521;51.700;6.874;2022-10-17T09:58:03;5.70;;;3.37;;
14858;SDS011;7521;51.700;6.874;2022-10-17T10:01:19;4.37;;;3.23;;
14858;SDS011;7521;51.700;6.874;2022-10-17T10:04:24;8.43;;;3.60;;
14858;SDS011;7521;51.700;6.874;2022-10-17T10:07:35;9.40;;;3.50;;
14858;SDS011;7521;51.700;6.874;2022-10-17T10:10:41;6.07;;;3.87;;
14858;SDS011;7521;51.700;6.874;2022-10-17T10:13:47;7.40;;;3.50;;
14858;SDS011;7521;51.700;6.874;2022-10-17T10:16:53;8.10;;;3.77;;
14858;SDS011;7521;51.700;6.874;2022-10-17T10:19:59;8.37;;;3.70;;
14858;SDS011;7521;51.700;6.874;2022-10-17T10:23:05;7.20;;;4.03;;
14858;SDS011;7521;51.700;6.874;2022-10-17T10:26:17;9.03;;;4.33;;
14858;SDS011;7521;51.700;6.874;2022-10-17T10:29:30;10.03;;;4.43;;
14858;SDS011;7521;51.700;6.874;2022-10-17T10:32:36;4.60;;;3.40;;
14858;SDS011;7521;51.700;6.874;2022-10-17T10:35:41;8.73;;;4.07;;
14858;SDS011;7521;51.700;6.874;2022-10-17T10:38:50;9.38;;;4.18;;
14858;SDS011;7521;51.700;6.874;2022-10-17T10:41:56;8.53;;;4.00;;
14858;SDS011;7521;51.700;6.874;2022-10-17T10:45:20;6.97;;;3.47;;
14858;SDS011;7521;51.700;6.874;2022-10-17T10:48:29;8.13;;;3.53;;
14858;SDS011;7521;51.700;6.874;2022-10-17T10:51:42;7.50;;;3.40;;
14858;SDS011;7521;51.700;6.874;2022-10-17T10:54:52;10.60;;;4.50;;
14858;SDS011;7521;51.700;6.874;2022-10-17T10:58:00;4.93;;;3.30;;
14858;SDS011;7521;51.700;6.874;2022-10-17T11:01:13;9.97;;;3.97;;
14858;SDS011;7521;51.700;6.874;2022-10-17T11:07:34;8.67;;;3.83;;
14858;SDS011;7521;51.700;6.874;2022-10-17T11:10:48;8.67;;;3.70;;
14858;SDS011;7521;51.700;6.874;2022-10-17T11:17:20;6.97;;;3.50;;
14858;SDS011;7521;51.700;6.874;2022-10-17T11:20:47;6.43;;;3.87;;
14858;SDS011;7521;51.700;6.874;2022-10-17T11:24:09;9.60;;;4.30;;
14858;SDS011;7521;51.700;6.874;2022-10-17T11:27:16;10.73;;;4.63;;
14858;SDS011;7521;51.700;6.874;2022-10-17T11:30:22;6.57;;;4.37;;
14858;SDS011;7521;51.700;6.874;2022-10-17T11:36:55;8.70;;;3.97;;
14858;SDS011;7521;51.700;6.874;2022-10-17T11:40:04;6.17;;;4.60;;
14858;SDS011;7521;51.700;6.874;2022-10-17T11:43:21;7.67;;;4.80;;
14858;SDS011;7521;51.700;6.874;2022-10-17T11:46:30;6.00;;;5.00;;
14858;SDS011;7521;51.700;6.874;2022-10-17T11:49:38;9.97;;;4.97;;
14858;SDS011;7521;51.700;6.874;2022-10-17T11:52:50;8.70;;;5.47;;
14858;SDS011;7521;51.700;6.874;2022-10-17T11:55:57;8.17;;;4.70;;
14858;SDS011;7521;51.700;6.874;2022-10-17T11:59:14;12.23;;;8.73;;
14858;SDS011;7521;51.700;6.874;2022-10-17T12:02:29;8.50;;;5.30;;
14858;SDS011;7521;51.700;6.874;2022-10-17T12:18:15;8.93;;;6.10;;
14858;SDS011;7521;51.700;6.874;2022-10-17T12:21:21;9.27;;;5.67;;
14858;SDS011;7521;51.700;6.874;2022-10-17T12:24:30;8.93;;;5.80;;
14858;SDS011;7521;51.700;6.874;2022-10-17T12:27:41;13.33;;;6.93;;
14858;SDS011;7521;51.700;6.874;2022-10-17T12:31:09;9.53;;;6.03;;
14858;SDS011;7521;51.700;6.874;2022-10-17T12:34:15;12.00;;;6.50;;
14858;SDS011;7521;51.700;6.874;2022-10-17T12:43:54;21.07;;;8.40;;
14858;SDS011;7521;51.700;6.874;2022-10-17T12:56:58;11.43;;;6.60;;
14858;SDS011;7521;51.700;6.874;2022-10-17T13:00:11;12.20;;;7.07;;
14858;SDS011;7521;51.700;6.874;2022-10-17T13:03:22;9.87;;;6.10;;
14858;SDS011;7521;51.700;6.874;2022-10-17T13:06:28;12.53;;;7.00;;
14858;SDS011;7521;51.700;6.874;2022-10-17T13:09:35;14.73;;;10.63;;
14858;SDS011;7521;51.700;6.874;2022-10-17T13:12:41;19.47;;;17.50;;
14858;SDS011;7521;51.700;6.874;2022-10-17T13:15:47;22.57;;;20.27;;
14858;SDS011;7521;51.700;6.874;2022-10-17T13:18:53;12.37;;;7.27;;
14858;SDS011;7521;51.700;6.874;2022-10-17T13:21:59;10.07;;;5.97;;
14858;SDS011;7521;51.700;6.874;2022-10-17T13:25:13;8.40;;;5.47;;
14858;SDS011;7521;51.700;6.874;2022-10-17T13:28:18;14.97;;;6.23;;
14858;SDS011;7521;51.700;6.874;2022-10-17T13:31:26;8.23;;;5.35;;
14858;SDS011;7521;51.700;6.874;2022-10-17T13:34:32;8.60;;;5.67;;
14858;SDS011;7521;51.700;6.874;2022-10-17T13:37:40;8.30;;;4.53;;
14858;SDS011;7521;51.700;6.874;2022-10-17T13:40:46;9.00;;;3.70;;
14858;SDS011;7521;51.700;6.874;2022-10-17T13:43:52;10.18;;;3.63;;
14858;SDS011;7521;51.700;6.874;2022-10-17T13:46:57;6.57;;;4.13;;
14858;SDS011;7521;51.700;6.874;2022-10-17T13:50:03;6.17;;;3.90;;
14858;SDS011;7521;51.700;6.874;2022-10-17T13:59:23;8.40;;;4.13;;
14858;SDS011;7521;51.700;6.874;2022-10-17T14:02:29;6.77;;;4.10;;
14858;SDS011;7521;51.700;6.874;2022-10-17T14:05:35;13.90;;;4.20;;
14858;SDS011;7521;51.700;6.874;2022-10-17T14:09:01;7.27;;;3.80;;
14858;SDS011;7521;51.700;6.874;2022-10-17T14:12:08;6.83;;;3.30;;
14858;SDS011;7521;51.700;6.874;2022-10-17T14:15:16;6.63;;;3.77;;
14858;SDS011;7521;51.700;6.874;2022-10-17T14:18:32;4.60;;;3.93;;
14858;SDS011;7521;51.700;6.874;2022-10-17T14:21:38;6.40;;;3.67;;
14858;SDS011;7521;51.700;6.874;2022-10-17T14:24:43;7.32;;;4.07;;
14858;SDS011;7521;51.700;6.874;2022-10-17T14:27:53;10.03;;;4.47;;
14858;SDS011;7521;51.700;6.874;2022-10-17T14:31:11;8.43;;;4.23;;
14858;SDS011;7521;51.700;6.874;2022-10-17T14:34:22;7.63;;;3.83;;
14858;SDS011;7521;51.700;6.874;2022-10-17T14:37:40;11.00;;;4.07;;
14858;SDS011;7521;51.700;6.874;2022-10-17T14:40:51;7.77;;;4.50;;
14858;SDS011;7521;51.700;6.874;2022-10-17T14:43:58;6.07;;;3.73;;
14858;SDS011;7521;51.700;6.874;2022-10-17T14:47:04;6.93;;;4.23;;
14858;SDS011;7521;51.700;6.874;2022-10-17T14:56:22;10.40;;;4.27;;
14858;SDS011;7521;51.700;6.874;2022-10-17T14:59:27;7.57;;;5.00;;
14858;SDS011;7521;51.700;6.874;2022-10-17T15:02:32;8.35;;;4.55;;
14858;SDS011;7521;51.700;6.874;2022-10-17T15:05:38;9.38;;;5.63;;
14858;SDS011;7521;51.700;6.874;2022-10-17T15:08:43;7.07;;;4.40;;
14858;SDS011;7521;51.700;6.874;2022-10-17T15:11:49;9.38;;;5.00;;
14858;SDS011;7521;51.700;6.874;2022-10-17T15:14:54;12.77;;;4.90;;
14858;SDS011;7521;51.700;6.874;2022-10-17T15:17:59;9.17;;;4.97;;
14858;SDS011;7521;51.700;6.874;2022-10-17T15:21:08;7.63;;;4.70;;
14858;SDS011;7521;51.700;6.874;2022-10-17T15:24:15;15.37;;;5.47;;
14858;SDS011;7521;51.700;6.874;2022-10-17T15:27:21;7.38;;;4.78;;
14858;SDS011;7521;51.700;6.874;2022-10-17T15:30:27;6.60;;;5.07;;
14858;SDS011;7521;51.700;6.874;2022-10-17T15:33:33;9.43;;;5.53;;
14858;SDS011;7521;51.700;6.874;2022-10-17T15:36:39;9.70;;;5.80;;
14858;SDS011;7521;51.700;6.874;2022-10-17T15:39:46;10.20;;;5.13;;
14858;SDS011;7521;51.700;6.874;2022-10-17T15:42:56;8.33;;;5.23;;
14858;SDS011;7521;51.700;6.874;2022-10-17T15:46:01;10.52;;;5.30;;
14858;SDS011;7521;51.700;6.874;2022-10-17T15:49:12;7.33;;;5.70;;
14858;SDS011;7521;51.700;6.874;2022-10-17T15:52:17;9.27;;;6.00;;
14858;SDS011;7521;51.700;6.874;2022-10-17T15:55:23;11.93;;;5.87;;
14858;SDS011;7521;51.700;6.874;2022-10-17T15:58:38;9.45;;;6.22;;
14858;SDS011;7521;51.700;6.874;2022-10-17T16:01:44;11.17;;;6.70;;
14858;SDS011;7521;51.700;6.874;2022-10-17T16:04:49;9.50;;;7.27;;
14858;SDS011;7521;51.700;6.874;2022-10-17T16:07:55;13.40;;;6.77;;
14858;SDS011;7521;51.700;6.874;2022-10-17T16:11:01;10.83;;;7.07;;
14858;SDS011;7521;51.700;6.874;2022-10-17T16:14:09;8.87;;;6.50;;
14858;SDS011;7521;51.700;6.874;2022-10-17T16:17:15;9.43;;;7.27;;
14858;SDS011;7521;51.700;6.874;2022-10-17T16:20:20;9.17;;;7.63;;
14858;SDS011;7521;51.700;6.874;2022-10-17T16:23:26;10.53;;;9.43;;
14858;SDS011;7521;51.700;6.874;2022-10-17T16:26:31;12.47;;;9.33;;
14858;SDS011;7521;51.700;6.874;2022-10-17T16:29:36;10.77;;;8.50;;
14858;SDS011;7521;51.700;6.874;2022-10-17T16:32:42;11.60;;;7.40;;
14858;SDS011;7521;51.700;6.874;2022-10-17T16:35:47;8.73;;;7.83;;
14858;SDS011;7521;51.700;6.874;2022-10-17T16:38:53;11.67;;;8.10;;
14858;SDS011;7521;51.700;6.874;2022-10-17T16:41:58;9.57;;;7.00;;
14858;SDS011;7521;51.700;6.874;2022-10-17T16:45:03;11.07;;;7.60;;
14858;SDS011;7521;51.700;6.874;2022-10-17T16:48:09;11.07;;;7.37;;
14858;SDS011;7521;51.700;6.874;2022-10-17T16:51:14;11.87;;;8.60;;
14858;SDS011;7521;51.700;6.874;2022-10-17T16:54:20;8.87;;;7.03;;
14858;SDS011;7521;51.700;6.874;2022-10-17T16:57:25;11.48;;;7.72;;
14858;SDS011;7521;51.700;6.874;2022-10-17T17:00:30;8.80;;;8.00;;
14858;SDS011;7521;51.700;6.874;2022-10-17T17:03:36;11.60;;;8.82;;
14858;SDS011;7521;51.700;6.874;2022-10-17T17:06:41;12.93;;;8.70;;
14858;SDS011;7521;51.700;6.874;2022-10-17T17:09:47;12.18;;;8.55;;
14858;SDS011;7521;51.700;6.874;2022-10-17T17:12:52;12.77;;;8.10;;
14858;SDS011;7521;51.700;6.874;2022-10-17T17:16:04;12.43;;;9.45;;
14858;SDS011;7521;51.700;6.874;2022-10-17T17:19:11;10.67;;;7.87;;
14858;SDS011;7521;51.700;6.874;2022-10-17T17:22:16;11.67;;;10.03;;
14858;SDS011;7521;51.700;6.874;2022-10-17T17:25:21;9.27;;;8.35;;
14858;SDS011;7521;51.700;6.874;2022-10-17T17:28:27;12.35;;;9.10;;
14858;SDS011;7521;51.700;6.874;2022-10-17T17:31:33;9.10;;;7.40;;
14858;SDS011;7521;51.700;6.874;2022-10-17T17:34:38;9.80;;;8.80;;
14858;SDS011;7521;51.700;6.874;2022-10-17T17:37:43;10.27;;;7.65;;
14858;SDS011;7521;51.700;6.874;2022-10-17T17:40:49;9.20;;;7.65;;
14858;SDS011;7521;51.700;6.874;2022-10-17T17:43:54;9.23;;;7.73;;
14858;SDS011;7521;51.700;6.874;2022-10-17T17:46:59;10.57;;;8.40;;
14858;SDS011;7521;51.700;6.874;2022-10-17T17:50:05;9.98;;;8.38;;
14858;SDS011;7521;51.700;6.874;2022-10-17T17:53:11;11.63;;;10.00;;
14858;SDS011;7521;51.700;6.874;2022-10-17T17:56:23;14.00;;;10.90;;
14858;SDS011;7521;51.700;6.874;2022-10-17T17:59:29;25.17;;;16.13;;
14858;SDS011;7521;51.700;6.874;2022-10-17T18:02:35;20.47;;;14.60;;
14858;SDS011;7521;51.700;6.874;2022-10-17T18:05:40;12.00;;;10.70;;
14858;SDS011;7521;51.700;6.874;2022-10-17T18:08:46;13.67;;;11.30;;
14858;SDS011;7521;51.700;6.874;2022-10-17T18:11:51;15.07;;;11.50;;
14858;SDS011;7521;51.700;6.874;2022-10-17T18:14:56;16.17;;;12.37;;
14858;SDS011;7521;51.700;6.874;2022-10-17T18:18:02;13.13;;;11.70;;
14858;SDS011;7521;51.700;6.874;2022-10-17T18:21:07;12.57;;;10.15;;
14858;SDS011;7521;51.700;6.874;2022-10-17T18:24:13;13.50;;;10.67;;
14858;SDS011;7521;51.700;6.874;2022-10-17T18:27:18;13.18;;;10.70;;
14858;SDS011;7521;51.700;6.874;2022-10-17T18:30:23;14.05;;;11.00;;
14858;SDS011;7521;51.700;6.874;2022-10-17T18:33:28;11.00;;;9.90;;
14858;SDS011;7521;51.700;6.874;2022-10-17T18:36:34;13.05;;;11.68;;
14858;SDS011;7521;51.700;6.874;2022-10-17T18:39:39;15.27;;;11.50;;
14858;SDS011;7521;51.700;6.874;2022-10-17T18:42:44;11.55;;;10.48;;
14858;SDS011;7521;51.700;6.874;2022-10-17T18:45:49;11.30;;;10.20;;
14858;SDS011;7521;51.700;6.874;2022-10-17T18:48:55;12.18;;;10.65;;
14858;SDS011;7521;51.700;6.874;2022-10-17T18:52:00;13.70;;;10.53;;
14858;SDS011;7521;51.700;6.874;2022-10-17T18:55:05;11.57;;;10.38;;
14858;SDS011;7521;51.700;6.874;2022-10-17T18:58:10;11.87;;;10.67;;
14858;SDS011;7521;51.700;6.874;2022-10-17T19:01:16;12.73;;;11.52;;
14858;SDS011;7521;51.700;6.874;2022-10-17T19:04:22;12.43;;;11.17;;
14858;SDS011;7521;51.700;6.874;2022-10-17T19:07:27;14.10;;;11.13;;
14858;SDS011;7521;51.700;6.874;2022-10-17T19:10:32;12.40;;;10.98;;
14858;SDS011;7521;51.700;6.874;2022-10-17T19:13:38;12.60;;;11.30;;
14858;SDS011;7521;51.700;6.874;2022-10-17T19:16:44;12.90;;;10.43;;
14858;SDS011;7521;51.700;6.874;2022-10-17T19:19:49;11.40;;;10.13;;
14858;SDS011;7521;51.700;6.874;2022-10-17T19:22:56;11.60;;;10.17;;
14858;SDS011;7521;51.700;6.874;2022-10-17T19:26:04;10.40;;;9.17;;
14858;SDS011;7521;51.700;6.874;2022-10-17T19:29:13;12.67;;;10.30;;
14858;SDS011;7521;51.700;6.874;2022-10-17T19:32:18;13.47;;;10.30;;
14858;SDS011;7521;51.700;6.874;2022-10-17T19:35:23;12.50;;;10.27;;
14858;SDS011;7521;51.700;6.874;2022-10-17T19:38:29;13.00;;;10.77;;
14858;SDS011;7521;51.700;6.874;2022-10-17T19:41:34;12.13;;;10.50;;
14858;SDS011;7521;51.700;6.874;2022-10-17T19:44:42;10.50;;;9.27;;
14858;SDS011;7521;51.700;6.874;2022-10-17T19:47:47;14.13;;;9.68;;
14858;SDS011;7521;51.700;6.874;2022-10-17T19:50:53;10.13;;;8.70;;
14858;SDS011;7521;51.700;6.874;2022-10-17T19:53:58;14.40;;;10.07;;
14858;SDS011;7521;51.700;6.874;2022-10-17T19:57:06;10.57;;;9.43;;
14858;SDS011;7521;51.700;6.874;2022-10-17T20:00:11;10.73;;;9.37;;
14858;SDS011;7521;51.700;6.874;2022-10-17T20:03:17;11.33;;;8.90;;
14858;SDS011;7521;51.700;6.874;2022-10-17T20:06:22;11.23;;;9.07;;
14858;SDS011;7521;51.700;6.874;2022-10-17T20:09:28;10.00;;;8.83;;
14858;SDS011;7521;51.700;6.874;2022-10-17T20:12:33;13.55;;;9.88;;
14858;SDS011;7521;51.700;6.874;2022-10-17T20:15:38;12.97;;;9.57;;
14858;SDS011;7521;51.700;6.874;2022-10-17T20:18:44;10.83;;;9.60;;
14858;SDS011;7521;51.700;6.874;2022-10-17T20:21:49;10.70;;;9.60;;